Hope, Minnesota
Current Conditions -  °F | °C
As of 7:55 AM on Monday 24 Nov 2014 (Local Time) from KOWA Reporting Station
Overcast Overcast  
Wind Chill:   Ceiling: 1000
Heat Index: 21°   Visibility: 7mi
Dew Point: 18°   Wind: 18mph
Humidity: 86%   Direction: 290°WNW
Pressure: 29.39"   Gusts: 30mph
Location:  43.96°N, 93.28°W
Report Text: KOWA 241355Z AUTO 29016G26KT 7SM OVC010 M06/M08 A2939 RMK AO2
Loading
Personal Weather Stations






























Interactive Weather Map New forecast layout! Learn more

10-Day Weather Forecast

Advertisements
Track Severe Weather on mobile